Morland, KS (67650)

10:08 AM CDT on July 22, 2014 (GMT -0500)
Hill City Municipal (KHLC) Elev 2224 ft | 39.37 °N, 99.83 °W | Change Station
Active Advisory: Heat Advisory Active Notice: Public Information Statement

Current weather conditions updated 15 minutes ago

Clear
Clear
80 °F
Feels Like 82 °F
N
7
Wind Variable Wind from South

Today is forecast to be Cooler than yesterday.

Today
High -- | Low -- °F
--% Chance of Precip.
Yesterday
High -- | Low -- °F
Precip. -- in
6:31 AM 9:01 PM
Waning Crescent, 17% visible
Pressure 30.02 in
Visibility 10.0 miles
Clouds Clear
Heat Index 82 °F
Dew Point 65 °F
Humidity 60%
Rainfall 0.00 in
Snow Depth Not available.
UV 4 out of 12
Pollen 6.10 out of 12
Air Quality Not available.
Flu Activity No Activity
METAR KHLC 221453Z AUTO 17006KT 10SM CLR 27/18 A3011 RMK AO2 SLP166 T02670183 50010

More Conditions Fewer Conditions

Pressure 30.02 in
Visibility 10.0 miles
Clouds Clear
Heat Index 82 °F
Dew Point 65 °F
Humidity 60%
Rainfall 0.00 in
Snow Depth Not available.
UV 4 out of 12
Pollen 6.10 out of 12
Air Quality Not available.
Flu Activity No Activity
METAR KHLC 221453Z AUTO 17006KT 10SM CLR 27/18 A3011 RMK AO2 SLP166 T02670183 50010

More Conditions Fewer Conditions

10-Day Weather Forecast

LIGHTNING

Thunderstorms are forecast for your area. Cloud conditions might be right for producing strikes in the next few days, though lightning itself cannot be forecasted.

Lightning is a visible electrical discharge produced by a thunderstorm, based on the build up of oppositely charged particles within a cloud and from cloud to ground.

Know how to stay safe in a lightning storm.

Check out these Lightning WunderPhotos!

Almanac

Astronomy

Jul. 22, 2014 Rise Set
Actual Time 6:31 AM CDT 9:01 PM CDT
Civil Twilight 6:00 AM CDT 9:32 PM CDT
Nautical Twilight 5:22 AM CDT 10:10 PM CDT
Astronomical Twilight 4:39 AM CDT 10:52 PM CDT
Moon 3:05 AM CDT 5:40 PM CDT
Length of Visible Light 15h 31m
Length of Day
14h 29m
Tomorrow will be 1m 37s shorter.
Waning Crescent, 17% of the Moon is Illuminated
Today
Waning Crescent
Jul 26
New
Aug 3
First Quarter
Aug 10
Full
Aug 17
Last Quarter

Today's Extremes

State Highs State Lows

Community

WunderPhotos

Upload Photos

1,736,257 photos uploaded!

Nearby

Snow Depth

Station Depth Elevation
No new snow has been reported.

Earthquake Activity

City Distance Mag. Time & Date
No recent earthquake activity has been reported nearby.
Minimum magnitude displayed is 2.5.

Coastal Water Temperatures

Place Temperature
No Stations Reporting

Nearby Weather Stations

Station Location Temp. Heat Index Dew Point Humidity Wind Precip. Elev Updated Type
1 East, 2.5 South, Lenora, KS 81.0 °F - - - North  at  0.0 mph 0.00 in / hr 2467 ft 10:08 AM CDT Normal
MesoWest QUNTER , Park, KS 84 °F 81 °F - - North  at  - 0.00 in / hr 2638 ft 8:00 AM CDT MADIS
WaKeeney East Side, WaKeeney, KS 84.2 °F 84 °F 59 °F 43% North  at  0.0 mph 0.00 in / hr 2486 ft 10:08 AM CDT Normal

Show More Stations Show Fewer Stations